sensor_id;sensor_type;location;lat;lon;timestamp;P1;durP1;ratioP1;P2;durP2;ratioP2
53927;SDS011;39837;47.630;18.822;2023-04-08T00:01:45;11.43;;;8.13;;
53927;SDS011;39837;47.630;18.822;2023-04-08T00:04:29;11.85;;;6.95;;
53927;SDS011;39837;47.630;18.822;2023-04-08T00:07:14;10.82;;;6.68;;
53927;SDS011;39837;47.630;18.822;2023-04-08T00:09:58;9.13;;;7.25;;
53927;SDS011;39837;47.630;18.822;2023-04-08T00:12:42;17.73;;;8.35;;
53927;SDS011;39837;47.630;18.822;2023-04-08T00:15:26;12.48;;;7.88;;
53927;SDS011;39837;47.630;18.822;2023-04-08T00:18:09;12.05;;;7.55;;
53927;SDS011;39837;47.630;18.822;2023-04-08T00:20:53;11.13;;;8.07;;
53927;SDS011;39837;47.630;18.822;2023-04-08T00:23:39;12.02;;;7.70;;
53927;SDS011;39837;47.630;18.822;2023-04-08T00:26:24;9.65;;;8.65;;
53927;SDS011;39837;47.630;18.822;2023-04-08T00:29:08;18.20;;;8.65;;
53927;SDS011;39837;47.630;18.822;2023-04-08T00:31:53;11.02;;;7.43;;
53927;SDS011;39837;47.630;18.822;2023-04-08T00:34:37;9.07;;;7.72;;
53927;SDS011;39837;47.630;18.822;2023-04-08T00:37:21;12.18;;;7.85;;
53927;SDS011;39837;47.630;18.822;2023-04-08T00:40:06;11.45;;;7.72;;
53927;SDS011;39837;47.630;18.822;2023-04-08T00:42:50;8.13;;;6.95;;
53927;SDS011;39837;47.630;18.822;2023-04-08T00:45:34;13.73;;;7.18;;
53927;SDS011;39837;47.630;18.822;2023-04-08T00:48:18;10.65;;;7.68;;
53927;SDS011;39837;47.630;18.822;2023-04-08T00:51:02;10.85;;;7.13;;
53927;SDS011;39837;47.630;18.822;2023-04-08T00:53:46;9.88;;;7.60;;
53927;SDS011;39837;47.630;18.822;2023-04-08T00:56:30;9.40;;;6.40;;
53927;SDS011;39837;47.630;18.822;2023-04-08T00:59:16;10.77;;;8.32;;
53927;SDS011;39837;47.630;18.822;2023-04-08T01:02:12;8.45;;;6.07;;
53927;SDS011;39837;47.630;18.822;2023-04-08T01:05:02;10.45;;;7.10;;
53927;SDS011;39837;47.630;18.822;2023-04-08T01:07:48;11.88;;;7.30;;
53927;SDS011;39837;47.630;18.822;2023-04-08T01:10:33;12.45;;;8.05;;
53927;SDS011;39837;47.630;18.822;2023-04-08T01:13:17;14.73;;;7.95;;
53927;SDS011;39837;47.630;18.822;2023-04-08T01:16:04;13.40;;;7.40;;
53927;SDS011;39837;47.630;18.822;2023-04-08T01:18:48;11.30;;;6.80;;
53927;SDS011;39837;47.630;18.822;2023-04-08T01:21:34;7.53;;;6.75;;
53927;SDS011;39837;47.630;18.822;2023-04-08T01:24:25;7.85;;;6.95;;
53927;SDS011;39837;47.630;18.822;2023-04-08T01:27:12;9.75;;;7.13;;
53927;SDS011;39837;47.630;18.822;2023-04-08T01:29:57;9.63;;;7.15;;
53927;SDS011;39837;47.630;18.822;2023-04-08T01:32:42;10.13;;;7.95;;
53927;SDS011;39837;47.630;18.822;2023-04-08T01:35:27;11.48;;;8.30;;
53927;SDS011;39837;47.630;18.822;2023-04-08T01:38:14;11.13;;;7.78;;
53927;SDS011;39837;47.630;18.822;2023-04-08T01:41:00;12.55;;;7.38;;
53927;SDS011;39837;47.630;18.822;2023-04-08T01:43:44;10.25;;;7.18;;
53927;SDS011;39837;47.630;18.822;2023-04-08T01:46:29;9.93;;;7.00;;
53927;SDS011;39837;47.630;18.822;2023-04-08T01:49:14;14.90;;;8.73;;
53927;SDS011;39837;47.630;18.822;2023-04-08T01:51:59;11.15;;;7.45;;
53927;SDS011;39837;47.630;18.822;2023-04-08T01:54:44;12.93;;;7.65;;
53927;SDS011;39837;47.630;18.822;2023-04-08T01:57:30;12.52;;;7.90;;
53927;SDS011;39837;47.630;18.822;2023-04-08T02:00:17;11.65;;;8.68;;
53927;SDS011;39837;47.630;18.822;2023-04-08T02:03:03;12.20;;;7.30;;
53927;SDS011;39837;47.630;18.822;2023-04-08T02:05:48;9.40;;;6.75;;
53927;SDS011;39837;47.630;18.822;2023-04-08T02:08:33;16.42;;;8.07;;
53927;SDS011;39837;47.630;18.822;2023-04-08T02:11:18;8.13;;;5.97;;
53927;SDS011;39837;47.630;18.822;2023-04-08T02:14:03;10.77;;;8.23;;
53927;SDS011;39837;47.630;18.822;2023-04-08T02:19:51;11.43;;;7.47;;
53927;SDS011;39837;47.630;18.822;2023-04-08T02:25:39;13.32;;;8.73;;
53927;SDS011;39837;47.630;18.822;2023-04-08T02:28:23;11.65;;;7.50;;
53927;SDS011;39837;47.630;18.822;2023-04-08T02:31:09;11.10;;;7.30;;
53927;SDS011;39837;47.630;18.822;2023-04-08T02:33:56;12.30;;;7.90;;
53927;SDS011;39837;47.630;18.822;2023-04-08T02:36:40;13.63;;;7.22;;
53927;SDS011;39837;47.630;18.822;2023-04-08T02:39:32;8.05;;;6.43;;
53927;SDS011;39837;47.630;18.822;2023-04-08T02:42:16;12.88;;;8.07;;
53927;SDS011;39837;47.630;18.822;2023-04-08T02:45:00;16.08;;;7.97;;
53927;SDS011;39837;47.630;18.822;2023-04-08T02:47:44;13.88;;;6.97;;
53927;SDS011;39837;47.630;18.822;2023-04-08T02:50:28;9.32;;;6.70;;
53927;SDS011;39837;47.630;18.822;2023-04-08T02:53:12;9.02;;;6.85;;
53927;SDS011;39837;47.630;18.822;2023-04-08T02:55:56;9.65;;;5.65;;
53927;SDS011;39837;47.630;18.822;2023-04-08T02:58:40;6.53;;;5.45;;
53927;SDS011;39837;47.630;18.822;2023-04-08T03:01:24;10.25;;;6.60;;
53927;SDS011;39837;47.630;18.822;2023-04-08T03:04:08;18.52;;;6.97;;
53927;SDS011;39837;47.630;18.822;2023-04-08T03:06:52;8.75;;;6.53;;
53927;SDS011;39837;47.630;18.822;2023-04-08T03:09:36;11.20;;;7.03;;
53927;SDS011;39837;47.630;18.822;2023-04-08T03:12:21;13.13;;;7.18;;
53927;SDS011;39837;47.630;18.822;2023-04-08T03:15:05;12.02;;;6.75;;
53927;SDS011;39837;47.630;18.822;2023-04-08T03:17:50;8.25;;;5.80;;
53927;SDS011;39837;47.630;18.822;2023-04-08T03:20:34;7.22;;;5.68;;
53927;SDS011;39837;47.630;18.822;2023-04-08T03:23:18;9.25;;;6.68;;
53927;SDS011;39837;47.630;18.822;2023-04-08T03:26:02;12.88;;;7.13;;
53927;SDS011;39837;47.630;18.822;2023-04-08T03:28:46;8.25;;;5.90;;
53927;SDS011;39837;47.630;18.822;2023-04-08T03:31:30;9.80;;;6.50;;
53927;SDS011;39837;47.630;18.822;2023-04-08T03:34:15;9.35;;;6.28;;
53927;SDS011;39837;47.630;18.822;2023-04-08T03:36:58;7.57;;;6.07;;
53927;SDS011;39837;47.630;18.822;2023-04-08T03:39:42;9.40;;;5.78;;
53927;SDS011;39837;47.630;18.822;2023-04-08T03:42:26;7.53;;;5.20;;
53927;SDS011;39837;47.630;18.822;2023-04-08T03:45:10;8.43;;;6.40;;
53927;SDS011;39837;47.630;18.822;2023-04-08T03:47:54;10.50;;;6.05;;
53927;SDS011;39837;47.630;18.822;2023-04-08T03:50:38;7.90;;;5.82;;
53927;SDS011;39837;47.630;18.822;2023-04-08T03:53:22;10.82;;;5.78;;
53927;SDS011;39837;47.630;18.822;2023-04-08T03:56:06;12.35;;;7.13;;
53927;SDS011;39837;47.630;18.822;2023-04-08T03:58:51;7.78;;;6.63;;
53927;SDS011;39837;47.630;18.822;2023-04-08T04:01:35;11.82;;;6.05;;
53927;SDS011;39837;47.630;18.822;2023-04-08T04:04:19;10.27;;;6.50;;
53927;SDS011;39837;47.630;18.822;2023-04-08T04:07:04;10.32;;;5.90;;
53927;SDS011;39837;47.630;18.822;2023-04-08T04:09:48;8.48;;;6.15;;
53927;SDS011;39837;47.630;18.822;2023-04-08T04:12:36;9.35;;;6.80;;
53927;SDS011;39837;47.630;18.822;2023-04-08T04:15:20;12.38;;;6.95;;
53927;SDS011;39837;47.630;18.822;2023-04-08T04:18:05;14.77;;;9.27;;
53927;SDS011;39837;47.630;18.822;2023-04-08T04:20:49;17.13;;;7.90;;
53927;SDS011;39837;47.630;18.822;2023-04-08T04:23:33;10.18;;;7.53;;
53927;SDS011;39837;47.630;18.822;2023-04-08T04:26:17;11.70;;;7.38;;
53927;SDS011;39837;47.630;18.822;2023-04-08T04:29:01;13.18;;;7.28;;
53927;SDS011;39837;47.630;18.822;2023-04-08T04:31:45;11.77;;;6.82;;
53927;SDS011;39837;47.630;18.822;2023-04-08T04:34:28;12.43;;;7.97;;
53927;SDS011;39837;47.630;18.822;2023-04-08T04:37:12;10.52;;;7.82;;
53927;SDS011;39837;47.630;18.822;2023-04-08T04:39:57;13.15;;;7.93;;
53927;SDS011;39837;47.630;18.822;2023-04-08T04:42:41;12.80;;;8.68;;
53927;SDS011;39837;47.630;18.822;2023-04-08T04:45:25;13.75;;;8.05;;
53927;SDS011;39837;47.630;18.822;2023-04-08T04:48:09;10.45;;;7.70;;
53927;SDS011;39837;47.630;18.822;2023-04-08T04:50:54;15.02;;;8.15;;
53927;SDS011;39837;47.630;18.822;2023-04-08T04:53:38;9.50;;;7.65;;
53927;SDS011;39837;47.630;18.822;2023-04-08T04:56:22;13.40;;;7.90;;
53927;SDS011;39837;47.630;18.822;2023-04-08T04:59:07;12.85;;;7.47;;
53927;SDS011;39837;47.630;18.822;2023-04-08T05:01:51;17.45;;;8.00;;
53927;SDS011;39837;47.630;18.822;2023-04-08T05:04:35;10.65;;;7.35;;
53927;SDS011;39837;47.630;18.822;2023-04-08T05:07:20;16.52;;;8.10;;
53927;SDS011;39837;47.630;18.822;2023-04-08T05:10:04;10.65;;;7.60;;
53927;SDS011;39837;47.630;18.822;2023-04-08T05:12:49;14.98;;;8.13;;
53927;SDS011;39837;47.630;18.822;2023-04-08T05:15:33;11.65;;;6.80;;
53927;SDS011;39837;47.630;18.822;2023-04-08T05:18:17;9.77;;;7.97;;
53927;SDS011;39837;47.630;18.822;2023-04-08T05:21:02;16.70;;;7.95;;
53927;SDS011;39837;47.630;18.822;2023-04-08T05:23:46;12.57;;;8.48;;
53927;SDS011;39837;47.630;18.822;2023-04-08T05:26:30;12.07;;;8.68;;
53927;SDS011;39837;47.630;18.822;2023-04-08T05:29:14;11.30;;;8.13;;
53927;SDS011;39837;47.630;18.822;2023-04-08T05:31:58;13.40;;;9.00;;
53927;SDS011;39837;47.630;18.822;2023-04-08T05:34:42;13.77;;;7.78;;
53927;SDS011;39837;47.630;18.822;2023-04-08T05:37:27;11.77;;;6.82;;
53927;SDS011;39837;47.630;18.822;2023-04-08T05:40:11;14.13;;;9.52;;
53927;SDS011;39837;47.630;18.822;2023-04-08T05:42:55;9.98;;;7.72;;
53927;SDS011;39837;47.630;18.822;2023-04-08T05:45:39;11.70;;;8.18;;
53927;SDS011;39837;47.630;18.822;2023-04-08T05:48:24;13.05;;;8.20;;
53927;SDS011;39837;47.630;18.822;2023-04-08T05:51:12;18.02;;;9.50;;
53927;SDS011;39837;47.630;18.822;2023-04-08T05:53:56;14.88;;;7.60;;
53927;SDS011;39837;47.630;18.822;2023-04-08T05:56:41;13.63;;;8.68;;
53927;SDS011;39837;47.630;18.822;2023-04-08T05:59:25;10.48;;;8.25;;
53927;SDS011;39837;47.630;18.822;2023-04-08T06:02:09;17.30;;;9.93;;
53927;SDS011;39837;47.630;18.822;2023-04-08T06:04:53;14.75;;;8.77;;
53927;SDS011;39837;47.630;18.822;2023-04-08T06:07:37;12.20;;;8.32;;
53927;SDS011;39837;47.630;18.822;2023-04-08T06:10:21;16.95;;;9.35;;
53927;SDS011;39837;47.630;18.822;2023-04-08T06:13:04;16.70;;;9.68;;
53927;SDS011;39837;47.630;18.822;2023-04-08T06:15:48;17.98;;;11.05;;
53927;SDS011;39837;47.630;18.822;2023-04-08T06:18:32;15.60;;;9.75;;
53927;SDS011;39837;47.630;18.822;2023-04-08T06:21:17;17.42;;;9.05;;
53927;SDS011;39837;47.630;18.822;2023-04-08T06:24:01;9.55;;;7.70;;
53927;SDS011;39837;47.630;18.822;2023-04-08T06:26:45;11.55;;;7.57;;
53927;SDS011;39837;47.630;18.822;2023-04-08T06:29:30;11.32;;;7.13;;
53927;SDS011;39837;47.630;18.822;2023-04-08T06:32:16;15.07;;;8.30;;
53927;SDS011;39837;47.630;18.822;2023-04-08T06:35:00;9.93;;;7.50;;
53927;SDS011;39837;47.630;18.822;2023-04-08T06:37:44;9.70;;;7.93;;
53927;SDS011;39837;47.630;18.822;2023-04-08T06:40:28;13.88;;;7.97;;
53927;SDS011;39837;47.630;18.822;2023-04-08T06:43:12;12.07;;;7.97;;
53927;SDS011;39837;47.630;18.822;2023-04-08T06:45:56;11.07;;;7.40;;
53927;SDS011;39837;47.630;18.822;2023-04-08T06:48:40;12.60;;;9.32;;
53927;SDS011;39837;47.630;18.822;2023-04-08T06:51:24;22.13;;;10.32;;
53927;SDS011;39837;47.630;18.822;2023-04-08T06:54:10;11.40;;;7.45;;
53927;SDS011;39837;47.630;18.822;2023-04-08T06:56:54;8.02;;;6.43;;
53927;SDS011;39837;47.630;18.822;2023-04-08T06:59:38;11.15;;;7.13;;
53927;SDS011;39837;47.630;18.822;2023-04-08T07:02:22;9.15;;;6.55;;
53927;SDS011;39837;47.630;18.822;2023-04-08T07:05:06;10.57;;;7.65;;
53927;SDS011;39837;47.630;18.822;2023-04-08T07:07:50;10.27;;;8.05;;
53927;SDS011;39837;47.630;18.822;2023-04-08T07:10:34;7.28;;;6.30;;
53927;SDS011;39837;47.630;18.822;2023-04-08T07:13:18;10.90;;;7.05;;
53927;SDS011;39837;47.630;18.822;2023-04-08T07:16:02;10.98;;;7.28;;
53927;SDS011;39837;47.630;18.822;2023-04-08T07:18:48;11.35;;;7.28;;
53927;SDS011;39837;47.630;18.822;2023-04-08T07:21:32;9.87;;;6.77;;
53927;SDS011;39837;47.630;18.822;2023-04-08T07:24:17;6.40;;;5.82;;
53927;SDS011;39837;47.630;18.822;2023-04-08T07:27:01;9.73;;;6.80;;
53927;SDS011;39837;47.630;18.822;2023-04-08T07:29:45;6.43;;;5.88;;
53927;SDS011;39837;47.630;18.822;2023-04-08T07:32:29;10.25;;;6.55;;
53927;SDS011;39837;47.630;18.822;2023-04-08T07:35:13;14.50;;;8.68;;
53927;SDS011;39837;47.630;18.822;2023-04-08T07:37:57;9.60;;;7.63;;
53927;SDS011;39837;47.630;18.822;2023-04-08T07:40:41;10.57;;;6.25;;
53927;SDS011;39837;47.630;18.822;2023-04-08T07:43:25;7.50;;;6.32;;
53927;SDS011;39837;47.630;18.822;2023-04-08T07:46:10;10.82;;;7.35;;
53927;SDS011;39837;47.630;18.822;2023-04-08T07:48:54;15.90;;;7.05;;
53927;SDS011;39837;47.630;18.822;2023-04-08T07:51:38;10.88;;;7.13;;
53927;SDS011;39837;47.630;18.822;2023-04-08T07:54:22;9.80;;;7.15;;
53927;SDS011;39837;47.630;18.822;2023-04-08T07:57:06;15.15;;;7.65;;
53927;SDS011;39837;47.630;18.822;2023-04-08T07:59:50;15.85;;;8.13;;
53927;SDS011;39837;47.630;18.822;2023-04-08T08:02:34;18.45;;;10.63;;
53927;SDS011;39837;47.630;18.822;2023-04-08T08:05:18;12.93;;;7.88;;
53927;SDS011;39837;47.630;18.822;2023-04-08T08:08:02;7.97;;;5.75;;
53927;SDS011;39837;47.630;18.822;2023-04-08T08:10:46;6.75;;;5.97;;
53927;SDS011;39837;47.630;18.822;2023-04-08T08:13:31;9.80;;;6.18;;
53927;SDS011;39837;47.630;18.822;2023-04-08T08:16:15;7.05;;;5.38;;
53927;SDS011;39837;47.630;18.822;2023-04-08T08:18:59;8.02;;;6.55;;
53927;SDS011;39837;47.630;18.822;2023-04-08T08:21:44;9.27;;;6.90;;
53927;SDS011;39837;47.630;18.822;2023-04-08T08:24:28;15.00;;;9.40;;
53927;SDS011;39837;47.630;18.822;2023-04-08T08:27:13;13.00;;;7.90;;
53927;SDS011;39837;47.630;18.822;2023-04-08T08:29:57;13.80;;;7.57;;
53927;SDS011;39837;47.630;18.822;2023-04-08T08:32:40;15.65;;;7.82;;
53927;SDS011;39837;47.630;18.822;2023-04-08T08:35:24;7.53;;;6.35;;
53927;SDS011;39837;47.630;18.822;2023-04-08T08:38:09;11.95;;;7.50;;
53927;SDS011;39837;47.630;18.822;2023-04-08T08:40:57;7.22;;;5.85;;
53927;SDS011;39837;47.630;18.822;2023-04-08T08:43:42;7.38;;;5.00;;
53927;SDS011;39837;47.630;18.822;2023-04-08T08:46:27;8.73;;;5.60;;
53927;SDS011;39837;47.630;18.822;2023-04-08T08:49:12;9.52;;;4.68;;
53927;SDS011;39837;47.630;18.822;2023-04-08T08:51:56;5.90;;;4.85;;
53927;SDS011;39837;47.630;18.822;2023-04-08T08:54:41;4.75;;;4.13;;
53927;SDS011;39837;47.630;18.822;2023-04-08T08:57:25;8.38;;;5.50;;
53927;SDS011;39837;47.630;18.822;2023-04-08T09:00:10;5.82;;;5.13;;
53927;SDS011;39837;47.630;18.822;2023-04-08T09:02:55;6.50;;;5.45;;
53927;SDS011;39837;47.630;18.822;2023-04-08T09:05:46;7.03;;;6.32;;
53927;SDS011;39837;47.630;18.822;2023-04-08T09:08:36;9.45;;;5.85;;
53927;SDS011;39837;47.630;18.822;2023-04-08T09:11:20;6.18;;;5.03;;
53927;SDS011;39837;47.630;18.822;2023-04-08T09:14:05;6.50;;;5.53;;
53927;SDS011;39837;47.630;18.822;2023-04-08T09:16:51;5.90;;;5.35;;
53927;SDS011;39837;47.630;18.822;2023-04-08T09:19:35;5.63;;;5.03;;
53927;SDS011;39837;47.630;18.822;2023-04-08T09:22:20;8.40;;;6.25;;
53927;SDS011;39837;47.630;18.822;2023-04-08T09:25:20;6.72;;;5.35;;
53927;SDS011;39837;47.630;18.822;2023-04-08T09:28:18;6.38;;;4.60;;
53927;SDS011;39837;47.630;18.822;2023-04-08T09:31:19;7.45;;;5.47;;
53927;SDS011;39837;47.630;18.822;2023-04-08T09:34:11;7.03;;;6.03;;
53927;SDS011;39837;47.630;18.822;2023-04-08T09:36:56;9.10;;;5.72;;
53927;SDS011;39837;47.630;18.822;2023-04-08T09:39:40;6.03;;;4.95;;
53927;SDS011;39837;47.630;18.822;2023-04-08T09:42:24;8.02;;;6.15;;
53927;SDS011;39837;47.630;18.822;2023-04-08T09:45:09;7.45;;;6.47;;
53927;SDS011;39837;47.630;18.822;2023-04-08T09:47:56;6.38;;;5.70;;
53927;SDS011;39837;47.630;18.822;2023-04-08T09:50:49;5.97;;;5.45;;
53927;SDS011;39837;47.630;18.822;2023-04-08T09:53:43;6.63;;;5.22;;
53927;SDS011;39837;47.630;18.822;2023-04-08T09:56:33;13.83;;;5.97;;
53927;SDS011;39837;47.630;18.822;2023-04-08T09:59:20;5.75;;;5.05;;
53927;SDS011;39837;47.630;18.822;2023-04-08T10:02:08;7.03;;;5.65;;
53927;SDS011;39837;47.630;18.822;2023-04-08T10:04:54;8.40;;;6.85;;
53927;SDS011;39837;47.630;18.822;2023-04-08T10:07:42;10.90;;;5.82;;
53927;SDS011;39837;47.630;18.822;2023-04-08T10:10:26;8.43;;;6.15;;
53927;SDS011;39837;47.630;18.822;2023-04-08T10:13:11;9.40;;;6.53;;
53927;SDS011;39837;47.630;18.822;2023-04-08T10:16:29;5.22;;;4.72;;
53927;SDS011;39837;47.630;18.822;2023-04-08T10:19:43;11.40;;;6.75;;
53927;SDS011;39837;47.630;18.822;2023-04-08T10:22:46;4.90;;;4.47;;
53927;SDS011;39837;47.630;18.822;2023-04-08T10:25:37;7.55;;;5.38;;
53927;SDS011;39837;47.630;18.822;2023-04-08T10:28:27;8.40;;;6.43;;
53927;SDS011;39837;47.630;18.822;2023-04-08T10:31:12;10.82;;;5.80;;
53927;SDS011;39837;47.630;18.822;2023-04-08T10:34:14;9.40;;;7.28;;
53927;SDS011;39837;47.630;18.822;2023-04-08T10:37:02;7.57;;;6.07;;
53927;SDS011;39837;47.630;18.822;2023-04-08T10:39:50;10.55;;;5.75;;
53927;SDS011;39837;47.630;18.822;2023-04-08T10:42:37;6.88;;;6.13;;
53927;SDS011;39837;47.630;18.822;2023-04-08T10:45:21;10.63;;;8.02;;
53927;SDS011;39837;47.630;18.822;2023-04-08T10:48:12;7.20;;;5.88;;
53927;SDS011;39837;47.630;18.822;2023-04-08T10:51:07;7.53;;;6.28;;
53927;SDS011;39837;47.630;18.822;2023-04-08T10:53:51;11.98;;;6.82;;
53927;SDS011;39837;47.630;18.822;2023-04-08T10:56:35;8.45;;;7.22;;
53927;SDS011;39837;47.630;18.822;2023-04-08T10:59:27;7.57;;;6.05;;
53927;SDS011;39837;47.630;18.822;2023-04-08T11:02:13;9.32;;;6.65;;
53927;SDS011;39837;47.630;18.822;2023-04-08T11:04:57;10.90;;;6.40;;
53927;SDS011;39837;47.630;18.822;2023-04-08T11:07:41;7.40;;;6.10;;
53927;SDS011;39837;47.630;18.822;2023-04-08T11:10:25;7.38;;;5.88;;
53927;SDS011;39837;47.630;18.822;2023-04-08T11:13:10;6.63;;;4.97;;
53927;SDS011;39837;47.630;18.822;2023-04-08T11:15:57;7.80;;;6.22;;
53927;SDS011;39837;47.630;18.822;2023-04-08T11:18:42;6.53;;;5.80;;
53927;SDS011;39837;47.630;18.822;2023-04-08T11:24:13;8.43;;;5.57;;
53927;SDS011;39837;47.630;18.822;2023-04-08T11:26:59;8.40;;;5.22;;
53927;SDS011;39837;47.630;18.822;2023-04-08T11:29:43;9.13;;;5.28;;
53927;SDS011;39837;47.630;18.822;2023-04-08T11:32:28;7.57;;;5.38;;
53927;SDS011;39837;47.630;18.822;2023-04-08T11:35:12;7.75;;;6.47;;
53927;SDS011;39837;47.630;18.822;2023-04-08T11:38:01;6.07;;;5.35;;
53927;SDS011;39837;47.630;18.822;2023-04-08T11:40:55;6.45;;;5.72;;
53927;SDS011;39837;47.630;18.822;2023-04-08T11:43:51;12.70;;;6.70;;
53927;SDS011;39837;47.630;18.822;2023-04-08T11:46:35;10.82;;;6.40;;
53927;SDS011;39837;47.630;18.822;2023-04-08T11:49:19;7.03;;;5.65;;
53927;SDS011;39837;47.630;18.822;2023-04-08T11:52:05;9.23;;;5.65;;
53927;SDS011;39837;47.630;18.822;2023-04-08T11:54:50;7.82;;;6.18;;
53927;SDS011;39837;47.630;18.822;2023-04-08T11:57:33;8.23;;;6.47;;
53927;SDS011;39837;47.630;18.822;2023-04-08T12:00:19;5.75;;;5.25;;
53927;SDS011;39837;47.630;18.822;2023-04-08T12:03:05;6.88;;;5.05;;
53927;SDS011;39837;47.630;18.822;2023-04-08T12:05:50;8.68;;;5.63;;
53927;SDS011;39837;47.630;18.822;2023-04-08T12:08:34;10.68;;;5.75;;
53927;SDS011;39837;47.630;18.822;2023-04-08T12:11:19;8.10;;;6.97;;
53927;SDS011;39837;47.630;18.822;2023-04-08T12:14:03;5.25;;;4.78;;
53927;SDS011;39837;47.630;18.822;2023-04-08T12:16:48;6.68;;;5.38;;
53927;SDS011;39837;47.630;18.822;2023-04-08T12:19:32;8.70;;;6.32;;
53927;SDS011;39837;47.630;18.822;2023-04-08T12:22:16;6.53;;;5.80;;
53927;SDS011;39837;47.630;18.822;2023-04-08T12:25:00;6.72;;;4.85;;
53927;SDS011;39837;47.630;18.822;2023-04-08T12:27:48;5.80;;;5.22;;
53927;SDS011;39837;47.630;18.822;2023-04-08T12:30:32;6.07;;;5.07;;
53927;SDS011;39837;47.630;18.822;2023-04-08T12:33:16;9.30;;;6.40;;
53927;SDS011;39837;47.630;18.822;2023-04-08T12:36:00;7.00;;;5.30;;
53927;SDS011;39837;47.630;18.822;2023-04-08T12:38:44;7.95;;;6.47;;
53927;SDS011;39837;47.630;18.822;2023-04-08T12:41:28;7.53;;;6.88;;
53927;SDS011;39837;47.630;18.822;2023-04-08T12:44:12;14.27;;;7.45;;
53927;SDS011;39837;47.630;18.822;2023-04-08T12:46:57;9.43;;;7.32;;
53927;SDS011;39837;47.630;18.822;2023-04-08T12:49:41;5.65;;;5.18;;
53927;SDS011;39837;47.630;18.822;2023-04-08T12:52:25;7.60;;;6.82;;
53927;SDS011;39837;47.630;18.822;2023-04-08T12:55:09;8.35;;;6.13;;
53927;SDS011;39837;47.630;18.822;2023-04-08T12:57:54;6.15;;;5.60;;
53927;SDS011;39837;47.630;18.822;2023-04-08T13:00:39;11.67;;;6.20;;
53927;SDS011;39837;47.630;18.822;2023-04-08T13:03:29;11.25;;;7.53;;
53927;SDS011;39837;47.630;18.822;2023-04-08T13:06:14;10.50;;;7.15;;
53927;SDS011;39837;47.630;18.822;2023-04-08T13:08:59;7.10;;;5.97;;
53927;SDS011;39837;47.630;18.822;2023-04-08T13:11:43;8.02;;;6.35;;
53927;SDS011;39837;47.630;18.822;2023-04-08T13:14:27;6.15;;;5.03;;
53927;SDS011;39837;47.630;18.822;2023-04-08T13:17:11;9.45;;;6.65;;
53927;SDS011;39837;47.630;18.822;2023-04-08T13:19:55;6.93;;;5.68;;
53927;SDS011;39837;47.630;18.822;2023-04-08T13:22:39;6.40;;;5.03;;
53927;SDS011;39837;47.630;18.822;2023-04-08T13:25:23;7.90;;;6.05;;
53927;SDS011;39837;47.630;18.822;2023-04-08T13:28:07;9.13;;;5.30;;
53927;SDS011;39837;47.630;18.822;2023-04-08T13:30:51;10.70;;;5.90;;
53927;SDS011;39837;47.630;18.822;2023-04-08T13:33:36;9.07;;;5.93;;
53927;SDS011;39837;47.630;18.822;2023-04-08T13:36:21;7.28;;;6.57;;
53927;SDS011;39837;47.630;18.822;2023-04-08T13:39:06;8.88;;;6.18;;
53927;SDS011;39837;47.630;18.822;2023-04-08T13:41:50;9.60;;;6.15;;
53927;SDS011;39837;47.630;18.822;2023-04-08T13:44:34;7.88;;;6.45;;
53927;SDS011;39837;47.630;18.822;2023-04-08T13:47:19;8.55;;;5.85;;
53927;SDS011;39837;47.630;18.822;2023-04-08T13:50:03;8.45;;;5.40;;
53927;SDS011;39837;47.630;18.822;2023-04-08T13:52:48;7.20;;;6.50;;
53927;SDS011;39837;47.630;18.822;2023-04-08T13:55:32;7.68;;;6.28;;
53927;SDS011;39837;47.630;18.822;2023-04-08T13:58:16;7.50;;;6.65;;
53927;SDS011;39837;47.630;18.822;2023-04-08T14:01:00;7.78;;;6.97;;
53927;SDS011;39837;47.630;18.822;2023-04-08T14:03:45;6.93;;;6.05;;
53927;SDS011;39837;47.630;18.822;2023-04-08T14:06:29;8.70;;;6.95;;
53927;SDS011;39837;47.630;18.822;2023-04-08T14:09:13;8.40;;;7.53;;
53927;SDS011;39837;47.630;18.822;2023-04-08T14:11:57;8.88;;;6.72;;
53927;SDS011;39837;47.630;18.822;2023-04-08T14:14:41;10.45;;;8.02;;
53927;SDS011;39837;47.630;18.822;2023-04-08T14:17:25;5.18;;;4.75;;
53927;SDS011;39837;47.630;18.822;2023-04-08T14:20:10;9.07;;;5.70;;
53927;SDS011;39837;47.630;18.822;2023-04-08T14:22:54;7.60;;;6.70;;
53927;SDS011;39837;47.630;18.822;2023-04-08T14:25:39;5.72;;;5.10;;
53927;SDS011;39837;47.630;18.822;2023-04-08T14:28:23;6.40;;;5.20;;
53927;SDS011;39837;47.630;18.822;2023-04-08T14:31:07;6.25;;;5.30;;
53927;SDS011;39837;47.630;18.822;2023-04-08T14:33:51;6.57;;;4.88;;
53927;SDS011;39837;47.630;18.822;2023-04-08T14:36:35;7.22;;;5.55;;
53927;SDS011;39837;47.630;18.822;2023-04-08T14:39:19;6.55;;;5.68;;
53927;SDS011;39837;47.630;18.822;2023-04-08T14:42:03;7.28;;;6.25;;
53927;SDS011;39837;47.630;18.822;2023-04-08T14:44:47;6.80;;;5.18;;
53927;SDS011;39837;47.630;18.822;2023-04-08T14:47:32;9.38;;;6.97;;
53927;SDS011;39837;47.630;18.822;2023-04-08T14:50:16;11.13;;;7.72;;
53927;SDS011;39837;47.630;18.822;2023-04-08T14:53:00;8.15;;;6.80;;
53927;SDS011;39837;47.630;18.822;2023-04-08T14:55:44;9.68;;;6.38;;
53927;SDS011;39837;47.630;18.822;2023-04-08T14:58:29;6.78;;;5.82;;
53927;SDS011;39837;47.630;18.822;2023-04-08T15:01:13;8.98;;;6.82;;
53927;SDS011;39837;47.630;18.822;2023-04-08T15:03:57;7.70;;;6.45;;
53927;SDS011;39837;47.630;18.822;2023-04-08T15:06:41;6.90;;;5.13;;
53927;SDS011;39837;47.630;18.822;2023-04-08T15:09:27;6.38;;;5.60;;
53927;SDS011;39837;47.630;18.822;2023-04-08T15:12:11;9.82;;;5.93;;
53927;SDS011;39837;47.630;18.822;2023-04-08T15:14:54;7.68;;;5.63;;
53927;SDS011;39837;47.630;18.822;2023-04-08T15:17:39;12.02;;;5.65;;
53927;SDS011;39837;47.630;18.822;2023-04-08T15:20:25;8.25;;;5.07;;
53927;SDS011;39837;47.630;18.822;2023-04-08T15:23:09;9.80;;;7.45;;
53927;SDS011;39837;47.630;18.822;2023-04-08T15:25:54;7.38;;;6.60;;
53927;SDS011;39837;47.630;18.822;2023-04-08T15:28:39;6.45;;;5.63;;
53927;SDS011;39837;47.630;18.822;2023-04-08T15:31:24;9.55;;;6.55;;
53927;SDS011;39837;47.630;18.822;2023-04-08T15:34:08;7.53;;;5.60;;
53927;SDS011;39837;47.630;18.822;2023-04-08T15:36:53;5.35;;;4.65;;
53927;SDS011;39837;47.630;18.822;2023-04-08T15:39:39;6.50;;;5.28;;
53927;SDS011;39837;47.630;18.822;2023-04-08T15:42:24;8.80;;;5.28;;
53927;SDS011;39837;47.630;18.822;2023-04-08T15:45:08;5.45;;;4.95;;
53927;SDS011;39837;47.630;18.822;2023-04-08T15:47:52;5.05;;;4.68;;
53927;SDS011;39837;47.630;18.822;2023-04-08T15:50:37;6.78;;;5.32;;
53927;SDS011;39837;47.630;18.822;2023-04-08T15:53:21;9.90;;;4.75;;
53927;SDS011;39837;47.630;18.822;2023-04-08T15:56:05;4.85;;;4.45;;
53927;SDS011;39837;47.630;18.822;2023-04-08T15:58:50;6.60;;;4.97;;
53927;SDS011;39837;47.630;18.822;2023-04-08T16:01:35;4.25;;;3.85;;
53927;SDS011;39837;47.630;18.822;2023-04-08T16:04:19;5.68;;;4.93;;
53927;SDS011;39837;47.630;18.822;2023-04-08T16:07:03;4.70;;;4.30;;
53927;SDS011;39837;47.630;18.822;2023-04-08T16:09:47;5.60;;;5.07;;
53927;SDS011;39837;47.630;18.822;2023-04-08T16:12:31;6.80;;;4.22;;
53927;SDS011;39837;47.630;18.822;2023-04-08T16:15:16;10.10;;;5.43;;
53927;SDS011;39837;47.630;18.822;2023-04-08T16:18:03;8.57;;;6.30;;
53927;SDS011;39837;47.630;18.822;2023-04-08T16:20:49;12.48;;;7.28;;
53927;SDS011;39837;47.630;18.822;2023-04-08T16:23:33;7.57;;;5.53;;